createdAt,value
2019-04-26T00:01:46.019Z,24.17
2019-04-26T00:04:16.182Z,21.00
2019-04-26T00:06:46.345Z,24.10
2019-04-26T00:09:23.177Z,19.57
2019-04-26T00:12:10.751Z,22.70
2019-04-26T00:14:59.488Z,20.50
2019-04-26T00:17:30.165Z,20.93
2019-04-26T00:19:58.978Z,21.23
2019-04-26T00:22:27.716Z,21.43
2019-04-26T00:25:16.507Z,21.40
2019-04-26T00:27:45.068Z,22.23
2019-04-26T00:30:14.845Z,21.67
2019-04-26T00:32:43.933Z,22.47
2019-04-26T00:35:12.899Z,22.97
2019-04-26T00:37:42.407Z,24.83
2019-04-26T00:40:11.849Z,25.93
2019-04-26T00:42:41.682Z,27.70
2019-04-26T00:45:10.419Z,28.50
2019-04-26T00:47:39.315Z,29.37
2019-04-26T00:50:08.476Z,21.87
2019-04-26T00:52:38.687Z,38.90
2019-04-26T00:55:08.196Z,32.10
2019-04-26T00:57:36.986Z,30.67
2019-04-26T01:00:06.961Z,29.73
2019-04-26T01:02:42.823Z,29.70
2019-04-26T01:05:11.284Z,25.67
2019-04-26T01:07:42.783Z,34.13
2019-04-26T01:10:11.560Z,26.73
2019-04-26T01:12:40.022Z,22.17
2019-04-26T01:15:09.192Z,17.90
2019-04-26T01:17:37.725Z,24.37
2019-04-26T01:20:07.126Z,21.03
2019-04-26T01:22:38.673Z,27.90
2019-04-26T01:25:07.580Z,24.03
2019-04-26T01:27:37.458Z,20.47
2019-04-26T01:30:10.858Z,21.07
2019-04-26T01:32:42.595Z,24.80
2019-04-26T01:35:11.397Z,26.37
2019-04-26T01:37:41.193Z,23.23
2019-04-26T01:40:12.438Z,22.80
2019-04-26T01:42:54.532Z,21.80
2019-04-26T01:45:32.930Z,24.53
2019-04-26T01:48:04.476Z,21.20
2019-04-26T01:50:35.603Z,25.37
2019-04-26T01:53:05.514Z,21.60
2019-04-26T01:55:34.246Z,25.83
2019-04-26T01:58:05.619Z,24.63
2019-04-26T02:00:55.170Z,27.17
2019-04-26T02:03:25.611Z,41.30
2019-04-26T02:05:55.461Z,44.20
2019-04-26T02:08:24.521Z,25.07
2019-04-26T02:10:53.264Z,24.50
2019-04-26T02:13:24.843Z,38.00
2019-04-26T02:15:53.783Z,21.47
2019-04-26T02:18:23.943Z,25.03
2019-04-26T02:21:00.430Z,24.53
2019-04-26T02:23:35.034Z,28.73
2019-04-26T02:26:21.197Z,20.97
2019-04-26T02:28:50.568Z,21.83
2019-04-26T02:31:20.624Z,21.33
2019-04-26T02:33:56.782Z,23.23
2019-04-26T02:36:44.939Z,20.50
2019-04-26T02:38:57.207Z,22.33
2019-04-26T02:41:27.514Z,26.20
2019-04-26T02:43:59.259Z,26.97
2019-04-26T02:46:48.738Z,22.23
2019-04-26T02:49:38.582Z,24.00
2019-04-26T02:52:13.442Z,27.83
2019-04-26T02:55:00.075Z,27.00
2019-04-26T02:57:34.540Z,20.77
2019-04-26T03:00:08.845Z,24.17
2019-04-26T03:02:40.234Z,24.10
2019-04-26T03:05:10.738Z,25.23
2019-04-26T03:07:47.942Z,24.20
2019-04-26T03:10:18.297Z,25.97
2019-04-26T03:12:49.180Z,19.33
2019-04-26T03:15:22.746Z,22.47
2019-04-26T03:18:10.237Z,22.57
2019-04-26T03:20:42.209Z,22.23
2019-04-26T03:23:16.508Z,23.93
2019-04-26T03:25:48.043Z,20.33
2019-04-26T03:28:40.064Z,20.90
2019-04-26T03:31:23.165Z,20.73
2019-04-26T03:34:12.786Z,25.27
2019-04-26T03:37:20.070Z,25.10
2019-04-26T03:40:05.026Z,29.57
2019-04-26T03:42:40.671Z,26.03
2019-04-26T03:45:29.083Z,22.63
2019-04-26T03:48:03.456Z,26.67
2019-04-26T03:50:39.036Z,25.47
2019-04-26T03:53:12.708Z,23.43
2019-04-26T03:55:45.959Z,19.77
2019-04-26T03:58:37.775Z,20.00
2019-04-26T04:01:15.632Z,24.93
2019-04-26T04:03:47.760Z,21.63
2019-04-26T04:06:21.258Z,34.80
2019-04-26T04:08:52.794Z,24.83
2019-04-26T04:11:24.419Z,27.20
2019-04-26T04:13:56.208Z,19.67
2019-04-26T04:16:28.875Z,24.27
2019-04-26T04:19:12.496Z,22.30
2019-04-26T04:21:54.876Z,23.87
2019-04-26T04:24:26.489Z,26.47
2019-04-26T04:27:04.208Z,24.83
2019-04-26T04:29:42.892Z,21.63
2019-04-26T04:32:15.106Z,27.23
2019-04-26T04:34:48.198Z,21.90
2019-04-26T04:37:18.172Z,27.47
2019-04-26T04:40:01.509Z,24.77
2019-04-26T04:43:03.049Z,23.37
2019-04-26T04:45:42.598Z,27.57
2019-04-26T04:48:31.136Z,27.57
2019-04-26T04:51:11.326Z,23.37
2019-04-26T04:54:17.277Z,27.77
2019-04-26T04:57:09.599Z,24.30
2019-04-26T04:59:59.115Z,26.27
2019-04-26T05:02:37.975Z,24.77
2019-04-26T05:05:37.558Z,24.07
2019-04-26T05:08:18.357Z,26.10
2019-04-26T05:10:49.896Z,25.93
2019-04-26T05:13:39.935Z,27.43
2019-04-26T05:16:19.001Z,21.20
2019-04-26T05:18:59.416Z,28.93
2019-04-26T05:21:43.047Z,24.87
2019-04-26T05:24:36.900Z,24.90
2019-04-26T05:27:18.711Z,25.80
2019-04-26T05:30:13.337Z,21.83
2019-04-26T05:32:59.667Z,24.93
2019-04-26T05:35:53.395Z,23.80
2019-04-26T05:38:47.807Z,21.97
2019-04-26T05:41:40.047Z,19.67
2019-04-26T05:44:38.447Z,25.50
2019-04-26T05:47:14.489Z,24.73
2019-04-26T05:50:04.346Z,23.03
2019-04-26T05:53:06.241Z,26.00
2019-04-26T05:55:39.491Z,26.90
2019-04-26T05:58:19.832Z,25.53
2019-04-26T06:01:20.335Z,25.13
2019-04-26T06:04:11.383Z,21.10
2019-04-26T06:06:47.669Z,21.27
2019-04-26T06:09:26.606Z,25.80
2019-04-26T06:12:19.058Z,27.63
2019-04-26T06:15:13.116Z,21.87
2019-04-26T06:17:46.338Z,29.37
2019-04-26T06:20:26.930Z,24.10
2019-04-26T06:23:13.141Z,26.47
2019-04-26T06:26:20.447Z,26.90
2019-04-26T06:28:58.982Z,17.97
2019-04-26T06:31:36.256Z,19.93
2019-04-26T06:34:07.797Z,21.83
2019-04-26T06:36:40.971Z,20.83
2019-04-26T06:39:14.160Z,20.07
2019-04-26T06:42:09.925Z,22.30
2019-04-26T06:45:02.850Z,24.67
2019-04-26T06:47:50.972Z,18.93
2019-04-26T06:50:38.781Z,24.63
2019-04-26T06:53:31.218Z,20.03
2019-04-26T06:56:16.414Z,19.00
2019-04-26T06:59:06.179Z,22.87
2019-04-26T07:01:56.554Z,22.00
2019-04-26T07:04:38.415Z,24.33
2019-04-26T07:07:26.702Z,23.07
2019-04-26T07:10:02.053Z,23.03
2019-04-26T07:12:44.496Z,21.53
2019-04-26T07:15:40.249Z,17.33
2019-04-26T07:18:30.032Z,18.37
2019-04-26T07:21:20.845Z,18.37
2019-04-26T07:24:17.607Z,17.93
2019-04-26T07:26:58.178Z,13.17
2019-04-26T07:29:29.887Z,19.87
2019-04-26T07:32:09.544Z,18.13
2019-04-26T07:34:45.303Z,21.17
2019-04-26T07:37:39.472Z,16.30
2019-04-26T07:40:28.989Z,21.87
2019-04-26T07:43:36.755Z,20.57
2019-04-26T07:46:25.540Z,17.40
2019-04-26T07:49:18.244Z,13.57
2019-04-26T07:52:22.491Z,18.27
2019-04-26T07:55:18.331Z,19.50
2019-04-26T07:58:03.562Z,16.87
2019-04-26T08:00:44.958Z,20.10
2019-04-26T08:03:29.430Z,24.77
2019-04-26T08:06:21.629Z,19.27
2019-04-26T08:08:55.752Z,20.20
2019-04-26T08:11:36.036Z,17.17
2019-04-26T08:14:10.696Z,19.20
2019-04-26T08:17:04.791Z,17.50
2019-04-26T08:19:36.342Z,27.50
2019-04-26T08:22:18.264Z,17.50
2019-04-26T08:24:40.449Z,18.73
2019-04-26T08:27:22.834Z,18.57
2019-04-26T08:29:47.481Z,16.90
2019-04-26T08:32:22.333Z,14.17
2019-04-26T08:34:56.528Z,15.40
2019-04-26T08:37:36.479Z,17.43
2019-04-26T08:40:04.499Z,15.70
2019-04-26T08:42:36.758Z,20.30
2019-04-26T08:45:13.541Z,17.37
2019-04-26T08:47:46.074Z,16.13
2019-04-26T08:50:24.218Z,15.57
2019-04-26T08:52:55.014Z,16.90
2019-04-26T08:55:26.257Z,12.53
2019-04-26T08:57:57.795Z,17.17
2019-04-26T09:00:36.971Z,19.37
2019-04-26T09:03:12.207Z,15.67
2019-04-26T09:05:49.945Z,18.97
2019-04-26T09:08:20.435Z,17.13
2019-04-26T09:10:51.803Z,13.63
2019-04-26T09:13:23.355Z,15.87
2019-04-26T09:16:10.122Z,18.70
2019-04-26T09:18:43.380Z,18.57
2019-04-26T09:21:09.588Z,14.70
2019-04-26T09:23:56.101Z,14.50
2019-04-26T09:26:29.419Z,14.90
2019-04-26T09:29:14.655Z,14.10
2019-04-26T09:31:44.744Z,16.93
2019-04-26T09:34:15.777Z,21.27
2019-04-26T09:36:44.229Z,19.20
2019-04-26T09:39:12.807Z,13.60
2019-04-26T09:41:41.271Z,12.63
2019-04-26T09:44:11.511Z,14.13
2019-04-26T09:46:52.827Z,15.33
2019-04-26T09:49:41.254Z,13.20
2019-04-26T09:52:10.861Z,17.07
2019-04-26T09:54:39.313Z,12.53
2019-04-26T09:57:07.780Z,15.77
2019-04-26T09:59:36.436Z,11.70
2019-04-26T10:02:06.957Z,16.60
2019-04-26T10:04:35.454Z,15.13
2019-04-26T10:07:04.194Z,13.50
2019-04-26T10:09:33.035Z,23.47
2019-04-26T10:12:03.139Z,9.93
2019-04-26T10:14:46.503Z,11.67
2019-04-26T10:17:17.466Z,15.90
2019-04-26T10:20:06.415Z,13.30
2019-04-26T10:22:34.875Z,8.30
2019-04-26T10:25:07.755Z,13.77
2019-04-26T10:27:36.290Z,10.20
2019-04-26T10:30:09.455Z,13.27
2019-04-26T10:32:37.980Z,13.10
2019-04-26T10:35:07.258Z,10.67
2019-04-26T10:37:39.542Z,12.23
2019-04-26T10:40:07.344Z,11.23
2019-04-26T10:42:35.815Z,7.37
2019-04-26T10:45:10.377Z,10.47
2019-04-26T10:47:40.355Z,6.23
2019-04-26T10:50:10.156Z,10.90
2019-04-26T10:52:53.427Z,10.53
2019-04-26T10:55:21.225Z,10.10
2019-04-26T10:58:11.493Z,12.03
2019-04-26T11:00:42.504Z,11.97
2019-04-26T11:03:11.043Z,12.30
2019-04-26T11:05:39.730Z,12.10
2019-04-26T11:08:08.184Z,7.80
2019-04-26T11:10:47.870Z,13.70
2019-04-26T11:13:07.687Z,11.87
2019-04-26T11:15:36.149Z,14.33
2019-04-26T11:18:04.957Z,14.00
2019-04-26T11:20:33.472Z,12.27
2019-04-26T11:23:01.938Z,12.23
2019-04-26T11:25:42.891Z,11.10
2019-04-26T11:28:11.387Z,10.67
2019-04-26T11:30:39.905Z,13.10
2019-04-26T11:33:11.180Z,10.63
2019-04-26T11:35:38.590Z,14.97
2019-04-26T11:38:07.057Z,7.73
2019-04-26T11:40:35.533Z,12.13
2019-04-26T11:43:04.263Z,7.47
2019-04-26T11:45:32.737Z,11.18
2019-04-26T11:48:03.269Z,13.78
2019-04-26T11:50:31.386Z,7.55
2019-04-26T11:53:19.186Z,8.55
2019-04-26T11:55:47.637Z,11.55
2019-04-26T11:58:17.947Z,8.83
2019-04-26T12:01:07.375Z,11.95
2019-04-26T12:03:35.989Z,12.35
2019-04-26T12:06:06.549Z,11.48
2019-04-26T12:08:45.933Z,9.85
2019-04-26T12:11:18.500Z,10.88
2019-04-26T12:13:45.023Z,10.32
2019-04-26T12:16:14.683Z,14.80
2019-04-26T12:18:44.139Z,11.30
2019-04-26T12:21:34.158Z,10.45
2019-04-26T12:24:04.035Z,11.03
2019-04-26T12:26:42.323Z,10.78
2019-04-26T12:29:02.686Z,9.80
2019-04-26T12:31:31.224Z,9.40
2019-04-26T12:34:19.178Z,8.18
2019-04-26T12:36:47.764Z,6.40
2019-04-26T12:39:17.202Z,7.78
2019-04-26T12:41:45.726Z,8.90
2019-04-26T12:44:15.046Z,10.10
2019-04-26T12:46:59.340Z,10.68
2019-04-26T12:49:46.607Z,8.20
2019-04-26T12:52:17.389Z,8.93
2019-04-26T12:54:45.322Z,12.55
2019-04-26T12:57:16.195Z,9.63
2019-04-26T12:59:44.638Z,15.88
2019-04-26T13:02:16.783Z,6.83
2019-04-26T13:04:44.472Z,10.60
2019-04-26T13:07:33.191Z,9.10
2019-04-26T13:10:06.079Z,10.48
2019-04-26T13:12:36.168Z,10.55
2019-04-26T13:15:50.443Z,9.85
2019-04-26T13:18:19.969Z,13.15
2019-04-26T13:20:48.489Z,9.18
2019-04-26T13:23:16.983Z,12.80
2019-04-26T13:25:45.435Z,10.53
2019-04-26T13:28:15.717Z,15.15
2019-04-26T13:30:44.935Z,15.90
2019-04-26T13:33:13.527Z,11.03
2019-04-26T13:35:46.656Z,9.98
2019-04-26T13:38:12.230Z,9.98
2019-04-26T13:40:40.697Z,10.90
2019-04-26T13:43:09.156Z,14.13
2019-04-26T13:45:54.226Z,10.15
2019-04-26T13:48:24.425Z,9.85
2019-04-26T13:51:09.345Z,11.50
2019-04-26T13:53:37.817Z,14.90
2019-04-26T13:56:09.423Z,14.45
2019-04-26T13:58:37.992Z,9.38
2019-04-26T14:01:06.532Z,7.60
2019-04-26T14:03:35.071Z,7.40
2019-04-26T14:06:03.633Z,13.30
2019-04-26T14:08:53.883Z,8.18
2019-04-26T14:11:28.035Z,8.98
2019-04-26T14:13:55.527Z,13.95
2019-04-26T14:16:22.793Z,9.85
2019-04-26T14:18:51.394Z,12.20
2019-04-26T14:21:19.895Z,12.00
2019-04-26T14:23:52.763Z,10.48
2019-04-26T14:26:35.322Z,13.38
2019-04-26T14:29:01.998Z,10.63
2019-04-26T14:31:30.464Z,13.35
2019-04-26T14:34:01.323Z,15.55
2019-04-26T14:36:29.144Z,14.25
2019-04-26T14:39:05.736Z,16.15
2019-04-26T14:41:27.821Z,13.25
2019-04-26T14:43:56.948Z,13.70
2019-04-26T14:46:26.311Z,14.15
2019-04-26T14:49:01.387Z,20.57
2019-04-26T14:51:25.053Z,11.83
2019-04-26T14:53:53.528Z,13.22
2019-04-26T14:56:24.790Z,20.27
2019-04-26T14:58:52.352Z,15.32
2019-04-26T15:01:38.700Z,15.25
2019-04-26T15:04:28.072Z,13.25
2019-04-26T15:06:58.062Z,19.87
2019-04-26T15:09:33.151Z,12.53
2019-04-26T15:11:59.668Z,21.05
2019-04-26T15:14:26.924Z,12.10
2019-04-26T15:16:55.733Z,14.20
2019-04-26T15:19:24.201Z,13.68
2019-04-26T15:21:55.641Z,11.03
2019-04-26T15:24:25.911Z,17.55
2019-04-26T15:26:54.300Z,13.90
2019-04-26T15:29:26.854Z,19.30
2019-04-26T15:31:53.651Z,17.12
2019-04-26T15:34:26.382Z,14.87
2019-04-26T15:36:54.275Z,16.90
2019-04-26T15:39:50.197Z,11.78
2019-04-26T15:42:23.784Z,14.78
2019-04-26T15:47:54.100Z,12.43
2019-04-26T15:50:24.272Z,13.20
2019-04-26T15:52:52.749Z,21.52
2019-04-26T15:55:21.200Z,16.67
2019-04-26T15:57:50.614Z,18.07
2019-04-26T16:00:19.627Z,14.25
2019-04-26T16:02:48.088Z,15.25
2019-04-26T16:05:17.549Z,17.75
2019-04-26T16:07:46.079Z,17.25
2019-04-26T16:10:14.681Z,12.85
2019-04-26T16:12:43.141Z,15.25
2019-04-26T16:15:14.706Z,13.45
2019-04-26T16:18:02.418Z,14.63
2019-04-26T16:20:37.486Z,15.28
2019-04-26T16:23:06.133Z,15.43
2019-04-26T16:25:34.432Z,13.93
2019-04-26T16:28:19.626Z,13.93
2019-04-26T16:31:02.479Z,19.20
2019-04-26T16:33:35.408Z,16.25
2019-04-26T16:36:23.923Z,14.87
2019-04-26T16:38:56.121Z,18.80
2019-04-26T16:41:27.285Z,14.47
2019-04-26T16:43:54.618Z,16.70
2019-04-26T16:46:24.842Z,15.40
2019-04-26T16:48:56.653Z,16.53
2019-04-26T16:51:23.691Z,13.53
2019-04-26T16:54:06.179Z,16.47
2019-04-26T16:56:26.532Z,15.03
2019-04-26T16:58:54.767Z,16.40
2019-04-26T17:01:23.420Z,15.63
2019-04-26T17:03:53.471Z,15.70
2019-04-26T17:06:23.280Z,14.17
2019-04-26T17:08:58.640Z,20.17
2019-04-26T17:11:22.949Z,18.50
2019-04-26T17:13:56.600Z,18.00
2019-04-26T17:16:24.142Z,18.87
2019-04-26T17:19:00.740Z,14.93
2019-04-26T17:21:34.483Z,14.77
2019-04-26T17:24:05.880Z,15.97
2019-04-26T17:26:38.020Z,15.70
2019-04-26T17:29:06.562Z,15.77
2019-04-26T17:31:35.024Z,16.50
2019-04-26T17:34:05.172Z,25.60
2019-04-26T17:36:34.518Z,24.30
2019-04-26T17:39:05.447Z,24.30
2019-04-26T17:41:33.909Z,24.73
2019-04-26T17:44:08.504Z,24.83
2019-04-26T17:46:32.764Z,28.23
2019-04-26T17:49:01.359Z,24.73
2019-04-26T17:51:32.476Z,20.33
2019-04-26T17:54:21.276Z,20.53
2019-04-26T17:56:35.420Z,21.97
2019-04-26T17:59:03.130Z,28.13
2019-04-26T18:01:42.957Z,27.97
2019-04-26T18:04:00.856Z,92.37
2019-04-26T18:06:30.202Z,391.60
2019-04-26T18:08:58.993Z,223.70
2019-04-26T18:11:27.464Z,180.33
2019-04-26T18:13:55.972Z,104.53
2019-04-26T18:16:29.160Z,35.43
2019-04-26T18:19:02.362Z,35.10
2019-04-26T18:21:37.500Z,36.20
2019-04-26T18:24:06.245Z,32.03
2019-04-26T18:26:34.832Z,29.60
2019-04-26T18:29:03.980Z,30.57
2019-04-26T18:31:33.609Z,20.97
2019-04-26T18:34:03.994Z,24.60
2019-04-26T18:36:33.306Z,32.70
2019-04-26T18:39:03.718Z,31.03
2019-04-26T18:41:33.829Z,34.70
2019-04-26T18:44:35.392Z,29.80
2019-04-26T18:46:53.654Z,32.80
2019-04-26T18:49:24.631Z,37.33
2019-04-26T18:51:52.494Z,40.77
2019-04-26T18:54:25.549Z,38.70
2019-04-26T18:56:55.745Z,46.53
2019-04-26T18:59:24.347Z,39.47
2019-04-26T19:01:53.743Z,42.00
2019-04-26T19:04:23.595Z,48.63
2019-04-26T19:06:52.314Z,37.23
2019-04-26T19:09:23.293Z,38.10
2019-04-26T19:11:52.863Z,51.13
2019-04-26T19:14:49.096Z,40.97
2019-04-26T19:17:12.029Z,33.13
2019-04-26T19:19:54.280Z,32.53
2019-04-26T19:22:22.799Z,33.13
2019-04-26T19:24:55.896Z,28.00
2019-04-26T19:27:26.700Z,33.37
2019-04-26T19:29:51.894Z,34.17
2019-04-26T19:32:21.833Z,33.50
2019-04-26T19:34:52.499Z,26.33
2019-04-26T19:37:23.095Z,37.90
2019-04-26T19:39:51.383Z,33.60
2019-04-26T19:42:19.856Z,37.50
2019-04-26T19:44:49.418Z,41.57
2019-04-26T19:47:29.235Z,40.13
2019-04-26T19:50:03.247Z,37.90
2019-04-26T19:52:49.396Z,40.97
2019-04-26T19:55:19.571Z,43.00
2019-04-26T19:58:09.709Z,33.80
2019-04-26T20:00:38.465Z,39.93
2019-04-26T20:03:08.477Z,48.33
2019-04-26T20:05:40.582Z,37.03
2019-04-26T20:08:07.187Z,38.83
2019-04-26T20:10:40.474Z,43.97
2019-04-26T20:13:07.550Z,42.73
2019-04-26T20:15:36.235Z,43.27
2019-04-26T20:18:04.738Z,41.20
2019-04-26T20:20:36.235Z,40.30
2019-04-26T20:23:06.503Z,39.07
2019-04-26T20:25:33.730Z,38.80
2019-04-26T20:28:03.131Z,42.93
2019-04-26T20:30:35.959Z,40.80
2019-04-26T20:33:04.483Z,38.83
2019-04-26T20:35:32.948Z,34.23
2019-04-26T20:38:04.706Z,36.77
2019-04-26T20:40:31.603Z,46.87
2019-04-26T20:43:05.655Z,46.40
2019-04-26T20:45:39.721Z,33.67
2019-04-26T20:48:02.362Z,49.67
2019-04-26T20:50:35.267Z,40.97
2019-04-26T20:53:02.332Z,50.53
2019-04-26T20:55:34.464Z,44.93
2019-04-26T20:58:06.988Z,46.77
2019-04-26T21:00:36.491Z,40.07
2019-04-26T21:03:05.956Z,45.90
2019-04-26T21:05:45.902Z,47.07
2019-04-26T21:08:03.953Z,40.57
2019-04-26T21:10:32.518Z,40.97
2019-04-26T21:13:01.910Z,55.47
2019-04-26T21:15:32.134Z,41.43
2019-04-26T21:18:04.042Z,39.43
2019-04-26T21:20:34.441Z,39.37
2019-04-26T21:23:02.343Z,40.00
2019-04-26T21:25:45.324Z,44.43
2019-04-26T21:28:27.308Z,48.33
2019-04-26T21:30:57.409Z,44.20
2019-04-26T21:33:28.736Z,55.73
2019-04-26T21:36:15.531Z,43.40
2019-04-26T21:38:45.677Z,47.67
2019-04-26T21:41:15.833Z,36.80
2019-04-26T21:43:44.288Z,43.20
2019-04-26T21:46:18.680Z,41.20
2019-04-26T21:48:44.614Z,38.83
2019-04-26T21:51:16.127Z,43.70
2019-04-26T21:53:45.091Z,36.33
2019-04-26T21:56:14.828Z,38.57
2019-04-26T21:58:46.002Z,37.63
2019-04-26T22:01:19.128Z,41.93
2019-04-26T22:03:54.223Z,36.53
2019-04-26T22:06:22.487Z,35.80
2019-04-26T22:08:50.334Z,39.40
2019-04-26T22:11:19.932Z,37.47
2019-04-26T22:13:56.855Z,35.93
2019-04-26T22:16:38.045Z,36.43
2019-04-26T22:19:14.648Z,34.97
2019-04-26T22:21:45.060Z,37.60
2019-04-26T22:24:17.804Z,32.60
2019-04-26T22:26:48.085Z,32.20
2019-04-26T22:29:16.802Z,37.77
2019-04-26T22:31:45.802Z,32.03
2019-04-26T22:34:14.265Z,35.20
2019-04-26T22:36:43.893Z,33.33
2019-04-26T22:39:18.937Z,37.03
2019-04-26T22:41:47.396Z,29.90
2019-04-26T22:44:20.341Z,37.60
2019-04-26T22:46:58.920Z,30.80
2019-04-26T22:49:26.487Z,35.57
2019-04-26T22:51:54.941Z,39.90
2019-04-26T22:54:24.966Z,33.27
2019-04-26T22:56:53.969Z,37.97
2019-04-26T22:59:22.925Z,36.93
2019-04-26T23:01:53.602Z,36.40
2019-04-26T23:04:26.381Z,30.27
2019-04-26T23:06:54.255Z,34.97
2019-04-26T23:09:23.450Z,37.40
2019-04-26T23:11:53.867Z,30.07
2019-04-26T23:14:33.633Z,37.63
2019-04-26T23:17:09.822Z,36.60
2019-04-26T23:19:49.440Z,30.13
2019-04-26T23:22:16.172Z,36.37
2019-04-26T23:24:44.947Z,36.30
2019-04-26T23:27:14.826Z,34.80
2019-04-26T23:29:55.111Z,34.03
2019-04-26T23:32:23.414Z,34.50
2019-04-26T23:34:53.555Z,35.57
2019-04-26T23:37:24.251Z,32.83
2019-04-26T23:39:53.658Z,32.80
2019-04-26T23:42:23.513Z,38.70
2019-04-26T23:44:52.545Z,27.77
2019-04-26T23:47:23.165Z,32.90
2019-04-26T23:49:53.829Z,33.57
2019-04-26T23:52:23.171Z,29.73
2019-04-26T23:54:53.008Z,30.67
2019-04-26T23:57:21.833Z,33.00
2019-04-26T23:59:51.055Z,29.77
